CWLY

Lytton  Airport

Lytton, Canada

CWLY 230900Z AUTO 17009G19KT 130V200 9SM -RA BKN070 OVC089 13/11 A2956 RMK SLP016 DENSITY ALT 1000FT

Observed Flight Rules
Nov-23 @ 09:00 UTC (23 minutes ago)
 
Visual Flight Rules
Wind Visibility Clouds Conditions
170° at 9 knots
 Gusting to 19 knots
9 miles
  • Broken at 7,000' AGL
  • Overcast at 8,900' AGL
  • Light Rain
Temperatures Readings
Current 13°C / 55°F
Dewpoint 11°C / 52°F
Humidity 88%
Altimeter 29.56" Hg
Pressure 1001.6 hPa
Elevation 229
Observed Flight Rules
Nov-23 @ 09:00 UTC
(23 minutes ago)
 
VFR
Wind Visibility
170° at 9 knots
 Gusting to 19 knots
9 miles
Clouds
  • Broken at 7,000' AGL
  • Overcast at 8,900' AGL
Conditions
  • Light Rain
Temperature Dewpoint
13°C / 55°F 11°C / 52°F
Humidity Altimeter Pressure
88% 29.56" Hg 1001.6 hPa